createdAt,value
2018-07-16T00:00:22.573Z,0.00
2018-07-16T00:01:22.557Z,0.00
2018-07-16T00:02:22.547Z,0.00
2018-07-16T00:03:22.563Z,0.00
2018-07-16T00:04:22.520Z,0.00
2018-07-16T00:05:22.513Z,0.00
2018-07-16T00:06:22.504Z,0.00
2018-07-16T00:07:22.490Z,0.00
2018-07-16T00:08:22.506Z,0.00
2018-07-16T00:09:22.472Z,0.00
2018-07-16T00:10:22.449Z,0.00
2018-07-16T00:11:22.441Z,0.00
2018-07-16T00:12:22.435Z,0.00
2018-07-16T00:13:22.422Z,0.00
2018-07-16T00:14:22.687Z,0.00
2018-07-16T00:15:22.634Z,0.00
2018-07-16T00:16:22.481Z,0.00
2018-07-16T00:17:22.729Z,0.00
2018-07-16T00:18:22.555Z,0.00
2018-07-16T00:19:22.349Z,0.00
2018-07-16T00:20:22.509Z,0.00
2018-07-16T00:21:22.324Z,0.00
2018-07-16T00:22:22.307Z,0.00
2018-07-16T00:23:22.303Z,0.00
2018-07-16T00:24:22.291Z,0.00
2018-07-16T00:25:22.303Z,0.00
2018-07-16T00:26:22.269Z,0.00
2018-07-16T00:27:22.250Z,0.00
2018-07-16T00:28:22.240Z,0.00
2018-07-16T00:29:22.226Z,0.00
2018-07-16T00:30:22.223Z,0.00
2018-07-16T00:31:22.241Z,0.00
2018-07-16T00:32:22.193Z,0.00
2018-07-16T00:33:22.187Z,0.00
2018-07-16T00:34:22.168Z,0.00
2018-07-16T00:35:22.160Z,0.00
2018-07-16T00:36:22.149Z,0.00
2018-07-16T00:37:22.167Z,0.00
2018-07-16T00:38:22.124Z,0.00
2018-07-16T00:39:22.123Z,0.00
2018-07-16T00:40:22.271Z,0.00
2018-07-16T00:41:22.477Z,0.00
2018-07-16T00:42:22.080Z,0.00
2018-07-16T00:43:22.181Z,0.00
2018-07-16T00:44:22.063Z,0.00
2018-07-16T00:45:22.041Z,0.00
2018-07-16T00:46:22.414Z,0.00
2018-07-16T00:47:22.164Z,0.00
2018-07-16T00:48:22.040Z,0.00
2018-07-16T00:49:21.999Z,0.00
2018-07-16T00:50:21.984Z,0.00
2018-07-16T00:51:22.767Z,0.00
2018-07-16T00:52:21.963Z,0.00
2018-07-16T00:53:21.958Z,0.00
2018-07-16T00:54:21.968Z,0.00
2018-07-16T00:55:21.932Z,0.00
2018-07-16T00:56:21.920Z,0.00
2018-07-16T00:57:21.899Z,0.00
2018-07-16T00:58:21.891Z,0.00
2018-07-16T00:59:21.882Z,0.00
2018-07-16T01:00:21.901Z,0.00
2018-07-16T01:01:21.858Z,0.00
2018-07-16T01:02:21.849Z,0.00
2018-07-16T01:03:21.830Z,0.00
2018-07-16T01:04:21.831Z,0.00
2018-07-16T01:05:21.845Z,0.00
2018-07-16T01:06:21.804Z,0.00
2018-07-16T01:07:21.793Z,0.00
2018-07-16T01:08:21.772Z,0.00
2018-07-16T01:09:21.768Z,0.00
2018-07-16T01:10:21.756Z,0.00
2018-07-16T01:11:21.777Z,0.00
2018-07-16T01:12:21.729Z,0.00
2018-07-16T01:13:21.716Z,0.00
2018-07-16T01:14:21.706Z,0.00
2018-07-16T01:15:21.700Z,0.00
2018-07-16T01:16:21.686Z,0.00
2018-07-16T01:17:21.703Z,0.00
2018-07-16T01:18:21.658Z,0.00
2018-07-16T01:19:21.649Z,0.00
2018-07-16T01:20:21.639Z,0.00
2018-07-16T01:21:21.632Z,0.00
2018-07-16T01:22:21.653Z,0.00
2018-07-16T01:23:21.610Z,0.00
2018-07-16T01:24:21.598Z,0.00
2018-07-16T01:25:21.582Z,0.00
2018-07-16T01:26:21.567Z,0.00
2018-07-16T01:27:21.557Z,0.00
2018-07-16T01:28:21.580Z,0.00
2018-07-16T01:29:21.532Z,0.00
2018-07-16T01:30:21.523Z,0.00
2018-07-16T01:31:21.515Z,0.00
2018-07-16T01:32:21.500Z,0.00
2018-07-16T01:33:21.493Z,0.00
2018-07-16T01:34:21.496Z,0.00
2018-07-16T01:35:21.470Z,0.00
2018-07-16T01:36:21.448Z,0.00
2018-07-16T01:37:21.437Z,0.00
2018-07-16T01:38:21.437Z,0.00
2018-07-16T01:39:21.446Z,0.00
2018-07-16T01:40:21.411Z,0.00
2018-07-16T01:41:21.399Z,0.00
2018-07-16T01:42:21.379Z,0.00
2018-07-16T01:43:21.376Z,0.00
2018-07-16T01:44:21.355Z,0.00
2018-07-16T01:45:21.369Z,0.00
2018-07-16T01:46:21.341Z,0.00
2018-07-16T01:47:21.325Z,0.00
2018-07-16T01:48:21.319Z,0.00
2018-07-16T01:49:21.304Z,0.00
2018-07-16T01:50:21.323Z,0.00
2018-07-16T01:51:21.280Z,0.00
2018-07-16T01:52:21.266Z,0.00
2018-07-16T01:53:21.273Z,0.00
2018-07-16T01:54:21.241Z,0.00
2018-07-16T01:55:21.237Z,0.00
2018-07-16T01:56:21.242Z,0.00
2018-07-16T01:57:21.237Z,0.00
2018-07-16T01:58:21.202Z,0.00
2018-07-16T01:59:21.187Z,0.00
2018-07-16T02:00:21.172Z,0.00
2018-07-16T02:01:21.159Z,0.00
2018-07-16T02:02:21.152Z,0.00
2018-07-16T02:03:21.180Z,0.00
2018-07-16T02:04:21.124Z,0.00
2018-07-16T02:05:21.117Z,0.00
2018-07-16T02:06:21.107Z,0.00
2018-07-16T02:07:21.098Z,0.00
2018-07-16T02:08:21.109Z,0.00
2018-07-16T02:09:21.066Z,0.00
2018-07-16T02:10:21.068Z,0.00
2018-07-16T02:11:21.051Z,0.00
2018-07-16T02:12:21.037Z,0.00
2018-07-16T02:13:21.030Z,0.00
2018-07-16T02:14:21.035Z,0.00
2018-07-16T02:15:21.008Z,0.00
2018-07-16T02:16:20.989Z,0.00
2018-07-16T02:17:20.982Z,0.00
2018-07-16T02:18:20.967Z,0.00
2018-07-16T02:19:20.995Z,0.00
2018-07-16T02:20:20.945Z,0.00
2018-07-16T02:21:20.937Z,0.00
2018-07-16T02:22:20.922Z,0.00
2018-07-16T02:23:20.914Z,0.00
2018-07-16T02:24:20.903Z,0.00
2018-07-16T02:25:20.919Z,0.00
2018-07-16T02:26:20.873Z,0.00
2018-07-16T02:27:20.871Z,0.00
2018-07-16T02:28:20.851Z,0.00
2018-07-16T02:29:20.845Z,0.00
2018-07-16T02:30:20.864Z,0.00
2018-07-16T02:31:20.833Z,0.00
2018-07-16T02:32:20.810Z,0.00
2018-07-16T02:33:20.807Z,0.00
2018-07-16T02:34:20.789Z,0.00
2018-07-16T02:35:20.776Z,0.00
2018-07-16T02:36:20.795Z,0.00
2018-07-16T02:37:20.752Z,0.00
2018-07-16T02:38:20.744Z,0.00
2018-07-16T02:39:20.730Z,0.00
2018-07-16T02:40:20.721Z,0.00
2018-07-16T02:41:20.703Z,0.00
2018-07-16T02:42:20.731Z,0.00
2018-07-16T02:43:20.687Z,0.00
2018-07-16T02:44:20.679Z,0.00
2018-07-16T02:45:20.666Z,0.00
2018-07-16T02:46:20.652Z,0.00
2018-07-16T02:47:20.643Z,0.00
2018-07-16T02:48:20.647Z,0.00
2018-07-16T02:49:20.610Z,0.00
2018-07-16T02:50:20.604Z,0.00
2018-07-16T02:51:20.590Z,0.00
2018-07-16T02:52:20.585Z,0.00
2018-07-16T02:53:20.603Z,0.00
2018-07-16T02:54:20.557Z,0.00
2018-07-16T02:55:20.550Z,0.00
2018-07-16T02:56:20.603Z,0.00
2018-07-16T02:57:20.530Z,0.00
2018-07-16T02:58:20.509Z,0.00
2018-07-16T02:59:20.540Z,0.00
2018-07-16T03:00:20.488Z,0.00
2018-07-16T03:01:20.481Z,0.00
2018-07-16T03:02:20.471Z,0.00
2018-07-16T03:03:20.452Z,0.00
2018-07-16T03:04:20.452Z,0.00
2018-07-16T03:05:20.462Z,0.00
2018-07-16T03:06:20.420Z,0.00
2018-07-16T03:07:20.412Z,0.00
2018-07-16T03:08:20.400Z,0.00
2018-07-16T03:09:20.385Z,0.00
2018-07-16T03:10:20.409Z,0.00
2018-07-16T03:11:20.368Z,0.00
2018-07-16T03:12:20.352Z,0.00
2018-07-16T03:13:20.339Z,0.00
2018-07-16T03:14:20.337Z,0.00
2018-07-16T03:15:20.322Z,0.00
2018-07-16T03:16:20.338Z,0.00
2018-07-16T03:17:20.301Z,0.00
2018-07-16T03:18:20.281Z,0.00
2018-07-16T03:19:20.279Z,0.00
2018-07-16T03:20:20.257Z,0.00
2018-07-16T03:21:20.256Z,0.00
2018-07-16T03:22:20.261Z,5.62
2018-07-16T03:23:20.231Z,5.62
2018-07-16T03:24:20.217Z,5.62
2018-07-16T03:25:20.206Z,5.62
2018-07-16T03:26:20.193Z,5.62
2018-07-16T03:27:20.214Z,5.62
2018-07-16T03:28:20.170Z,5.62
2018-07-16T03:29:20.163Z,5.62
2018-07-16T03:30:20.143Z,5.62
2018-07-16T03:31:20.139Z,11.25
2018-07-16T03:32:20.119Z,11.25
2018-07-16T03:33:20.139Z,11.25
2018-07-16T03:34:20.099Z,11.25
2018-07-16T03:35:20.089Z,11.25
2018-07-16T03:36:20.077Z,11.25
2018-07-16T03:37:20.065Z,16.88
2018-07-16T03:38:20.080Z,16.88
2018-07-16T03:39:20.049Z,16.88
2018-07-16T03:40:20.030Z,16.88
2018-07-16T03:41:20.021Z,16.88
2018-07-16T03:42:20.011Z,22.50
2018-07-16T03:43:19.997Z,22.50
2018-07-16T03:44:20.020Z,22.50
2018-07-16T03:45:19.971Z,22.50
2018-07-16T03:46:19.978Z,28.12
2018-07-16T03:47:19.948Z,28.12
2018-07-16T03:48:19.944Z,28.12
2018-07-16T03:49:19.926Z,28.12
2018-07-16T03:50:19.942Z,33.75
2018-07-16T03:51:19.909Z,33.75
2018-07-16T03:52:19.891Z,33.75
2018-07-16T03:53:19.887Z,33.75
2018-07-16T03:54:19.884Z,39.38
2018-07-16T03:55:19.885Z,39.38
2018-07-16T03:56:19.848Z,39.38
2018-07-16T03:57:19.842Z,39.38
2018-07-16T03:58:19.823Z,45.00
2018-07-16T03:59:19.812Z,45.00
2018-07-16T04:00:19.840Z,45.00
2018-07-16T04:01:19.797Z,45.00
2018-07-16T04:02:19.778Z,50.62
2018-07-16T04:03:19.768Z,50.62
2018-07-16T04:04:19.759Z,50.62
2018-07-16T04:05:19.748Z,50.62
2018-07-16T04:06:19.773Z,56.25
2018-07-16T04:07:19.719Z,56.25
2018-07-16T04:08:19.717Z,56.25
2018-07-16T04:09:19.705Z,61.88
2018-07-16T04:10:19.685Z,61.88
2018-07-16T04:11:19.677Z,61.88
2018-07-16T04:12:19.685Z,61.88
2018-07-16T04:13:19.660Z,67.50
2018-07-16T04:14:19.639Z,67.50
2018-07-16T04:15:19.634Z,67.50
2018-07-16T04:16:19.626Z,67.50
2018-07-16T04:17:19.643Z,73.12
2018-07-16T04:18:19.597Z,73.12
2018-07-16T04:19:19.583Z,73.12
2018-07-16T04:20:19.582Z,78.75
2018-07-16T04:21:19.570Z,78.75
2018-07-16T04:22:19.548Z,78.75
2018-07-16T04:23:19.568Z,78.75
2018-07-16T04:24:19.541Z,84.38
2018-07-16T04:25:19.515Z,84.38
2018-07-16T04:26:19.506Z,84.38
2018-07-16T04:27:19.491Z,84.38
2018-07-16T04:28:19.513Z,90.00
2018-07-16T04:29:19.468Z,90.00
2018-07-16T04:30:19.467Z,90.00
2018-07-16T04:31:19.445Z,90.00
2018-07-16T04:32:19.443Z,95.62
2018-07-16T04:33:19.425Z,95.62
2018-07-16T04:34:19.439Z,95.62
2018-07-16T04:35:19.402Z,95.62
2018-07-16T04:36:19.393Z,101.25
2018-07-16T04:37:19.378Z,101.25
2018-07-16T04:38:19.374Z,101.25
2018-07-16T04:39:19.392Z,101.25
2018-07-16T04:40:19.353Z,106.88
2018-07-16T04:41:19.340Z,106.88
2018-07-16T04:42:19.327Z,106.88
2018-07-16T04:43:19.310Z,106.88
2018-07-16T04:44:19.309Z,112.50
2018-07-16T04:45:19.319Z,112.50
2018-07-16T04:46:19.279Z,112.50
2018-07-16T04:47:19.268Z,112.50
2018-07-16T04:48:19.256Z,112.50
2018-07-16T04:49:19.241Z,118.12
2018-07-16T04:50:19.236Z,118.12
2018-07-16T04:51:19.250Z,118.12
2018-07-16T04:52:19.214Z,118.12
2018-07-16T04:53:19.197Z,123.75
2018-07-16T04:54:19.190Z,123.75
2018-07-16T04:55:19.174Z,123.75
2018-07-16T04:56:19.253Z,123.75
2018-07-16T04:57:19.176Z,123.75
2018-07-16T04:58:19.144Z,129.38
2018-07-16T04:59:19.131Z,129.38
2018-07-16T05:00:19.117Z,129.38
2018-07-16T05:01:19.107Z,129.38
2018-07-16T05:02:19.124Z,135.00
2018-07-16T05:03:19.107Z,135.00
2018-07-16T05:04:19.077Z,135.00
2018-07-16T05:05:19.066Z,135.00
2018-07-16T05:06:19.045Z,135.00
2018-07-16T05:07:19.066Z,140.62
2018-07-16T05:08:19.027Z,140.62
2018-07-16T05:09:19.017Z,140.62
2018-07-16T05:10:19.002Z,140.62
2018-07-16T05:11:18.994Z,140.62
2018-07-16T05:12:18.979Z,146.25
2018-07-16T05:13:19.002Z,146.25
2018-07-16T05:14:18.954Z,146.25
2018-07-16T05:15:18.950Z,146.25
2018-07-16T05:16:18.937Z,146.25
2018-07-16T05:17:18.928Z,146.25
2018-07-16T05:18:19.147Z,151.88
2018-07-16T05:19:18.922Z,151.88
2018-07-16T05:20:18.892Z,151.88
2018-07-16T05:21:18.882Z,151.88
2018-07-16T05:22:18.875Z,151.88
2018-07-16T05:23:18.855Z,157.50
2018-07-16T05:24:18.891Z,157.50
2018-07-16T05:25:18.830Z,157.50
2018-07-16T05:26:18.824Z,157.50
2018-07-16T05:27:18.809Z,157.50
2018-07-16T05:28:18.800Z,163.12
2018-07-16T05:29:18.788Z,163.12
2018-07-16T05:30:18.804Z,163.12
2018-07-16T05:31:18.760Z,163.12
2018-07-16T05:32:18.854Z,163.12
2018-07-16T05:33:18.736Z,168.75
2018-07-16T05:34:18.733Z,168.75
2018-07-16T05:35:18.749Z,168.75
2018-07-16T05:36:18.712Z,168.75
2018-07-16T05:37:18.700Z,168.75
2018-07-16T05:38:18.760Z,174.38
2018-07-16T05:39:18.686Z,174.38
2018-07-16T05:40:18.667Z,174.38
2018-07-16T05:41:18.677Z,180.00
2018-07-16T05:42:18.639Z,180.00
2018-07-16T05:43:18.623Z,180.00
2018-07-16T05:44:18.614Z,185.62
2018-07-16T05:45:18.610Z,185.62
2018-07-16T05:46:18.621Z,191.25
2018-07-16T05:47:18.574Z,191.25
2018-07-16T05:48:18.587Z,196.88
2018-07-16T05:49:18.551Z,196.88
2018-07-16T05:50:18.549Z,196.88
2018-07-16T05:51:18.535Z,196.88
2018-07-16T05:52:18.564Z,196.88
2018-07-16T05:53:18.514Z,196.88
2018-07-16T05:54:18.500Z,202.50
2018-07-16T05:55:18.489Z,202.50
2018-07-16T05:56:18.472Z,202.50
2018-07-16T05:57:18.463Z,202.50
2018-07-16T05:58:18.564Z,208.12
2018-07-16T05:59:18.440Z,208.12
2018-07-16T06:00:18.428Z,208.12
2018-07-16T06:01:18.421Z,213.75
2018-07-16T06:02:18.400Z,213.75
2018-07-16T06:03:18.397Z,213.75
2018-07-16T06:04:18.422Z,219.38
2018-07-16T06:05:18.375Z,219.38
2018-07-16T06:06:18.355Z,225.00
2018-07-16T06:07:18.350Z,225.00
2018-07-16T06:08:18.330Z,230.62
2018-07-16T06:09:18.323Z,236.25
2018-07-16T06:10:18.340Z,236.25
2018-07-16T06:11:18.300Z,236.25
2018-07-16T06:12:18.286Z,270.00
2018-07-16T06:13:18.278Z,331.88
2018-07-16T06:14:18.260Z,405.00
2018-07-16T06:15:18.264Z,433.12
2018-07-16T06:16:18.263Z,444.38
2018-07-16T06:17:18.234Z,461.25
2018-07-16T06:18:18.224Z,483.75
2018-07-16T06:19:18.209Z,506.25
2018-07-16T06:20:18.200Z,607.50
2018-07-16T06:21:18.211Z,1046.25
2018-07-16T06:22:18.177Z,2013.75
2018-07-16T06:23:18.155Z,2300.62
2018-07-16T06:24:18.155Z,1580.62
2018-07-16T06:25:18.137Z,1085.62
2018-07-16T06:26:18.128Z,1085.62
2018-07-16T06:27:18.143Z,1136.25
2018-07-16T06:28:18.105Z,1153.12
2018-07-16T06:29:18.089Z,1383.75
2018-07-16T06:30:18.085Z,1642.50
2018-07-16T06:31:18.087Z,1867.50
2018-07-16T06:32:18.085Z,1710.00
2018-07-16T06:33:18.069Z,1215.00
2018-07-16T06:34:18.029Z,1068.75
2018-07-16T06:35:18.024Z,1366.88
2018-07-16T06:36:18.013Z,1625.62
2018-07-16T06:37:18.005Z,1546.88
2018-07-16T06:38:18.017Z,1344.38
2018-07-16T06:39:17.983Z,1333.12
2018-07-16T06:40:18.145Z,1541.25
2018-07-16T06:41:18.309Z,2328.75
2018-07-16T06:42:17.943Z,3043.12
2018-07-16T06:43:17.934Z,2131.88
2018-07-16T06:44:17.952Z,1282.50
2018-07-16T06:45:17.908Z,1513.12
2018-07-16T06:46:17.900Z,2362.50
2018-07-16T06:47:17.892Z,2317.50
2018-07-16T06:48:17.871Z,1563.75
2018-07-16T06:49:17.860Z,1805.62
2018-07-16T06:50:17.888Z,2970.00
2018-07-16T06:51:17.843Z,3116.25
2018-07-16T06:52:17.827Z,1755.00
2018-07-16T06:53:17.813Z,1254.38
2018-07-16T06:54:17.811Z,1653.75
2018-07-16T06:55:17.796Z,2002.50
2018-07-16T06:56:17.805Z,1473.75
2018-07-16T06:57:17.770Z,1400.62
2018-07-16T06:58:17.762Z,1890.00
2018-07-16T06:59:17.755Z,1676.25
2018-07-16T07:00:17.734Z,1563.75
2018-07-16T07:01:17.761Z,2458.12
2018-07-16T07:02:17.737Z,2790.00
2018-07-16T07:03:17.706Z,1783.12
2018-07-16T07:04:17.692Z,1462.50
2018-07-16T07:05:17.687Z,1496.25
2018-07-16T07:06:17.667Z,1327.50
2018-07-16T07:07:17.696Z,1423.12
2018-07-16T07:08:17.645Z,1839.38
2018-07-16T07:09:17.644Z,1766.25
2018-07-16T07:10:17.621Z,1473.75
2018-07-16T07:11:17.620Z,1771.88
2018-07-16T07:12:17.599Z,1923.75
2018-07-16T07:13:17.615Z,1558.12
2018-07-16T07:14:17.579Z,1940.62
2018-07-16T07:15:17.571Z,2638.12
2018-07-16T07:16:17.561Z,2683.12
2018-07-16T07:17:17.546Z,3453.75
2018-07-16T07:18:17.635Z,3420.00
2018-07-16T07:19:17.526Z,2283.75
2018-07-16T07:20:17.515Z,2070.00
2018-07-16T07:21:17.499Z,2030.62
2018-07-16T07:22:17.495Z,2266.88
2018-07-16T07:23:17.508Z,2480.62
2018-07-16T07:24:17.469Z,2542.50
2018-07-16T07:25:17.553Z,3121.88
2018-07-16T07:26:17.454Z,3571.88
2018-07-16T07:27:17.433Z,3566.25
2018-07-16T07:28:17.430Z,2975.62
2018-07-16T07:29:17.446Z,2953.12
2018-07-16T07:30:17.415Z,3110.62
2018-07-16T07:31:17.393Z,2835.00
2018-07-16T07:32:17.384Z,2655.00
2018-07-16T07:33:17.373Z,2542.50
2018-07-16T07:34:17.378Z,2593.12
2018-07-16T07:35:17.577Z,2716.88
2018-07-16T07:36:17.349Z,3408.75
2018-07-16T07:37:17.333Z,3960.00
2018-07-16T07:38:17.320Z,3217.50
2018-07-16T07:39:17.311Z,2756.25
2018-07-16T07:40:17.333Z,3003.75
2018-07-16T07:41:17.294Z,3296.25
2018-07-16T07:42:17.271Z,3408.75
2018-07-16T07:43:17.267Z,3330.00
2018-07-16T07:44:17.249Z,3470.62
2018-07-16T07:45:17.243Z,3802.50
2018-07-16T07:46:17.254Z,3931.88
2018-07-16T07:47:17.221Z,3740.62
2018-07-16T07:48:17.207Z,3538.12
2018-07-16T07:49:17.203Z,3943.12
2018-07-16T07:50:17.183Z,5433.75
2018-07-16T07:51:17.210Z,6654.38
2018-07-16T07:52:17.167Z,5490.00
2018-07-16T07:53:17.151Z,3369.38
2018-07-16T07:54:17.256Z,2362.50
2018-07-16T07:55:17.638Z,2171.25
2018-07-16T07:56:17.128Z,2064.38
2018-07-16T07:57:17.139Z,1980.00
2018-07-16T07:58:17.102Z,1929.38
2018-07-16T07:59:17.089Z,1873.12
2018-07-16T08:00:17.088Z,1822.50
2018-07-16T08:01:17.078Z,1783.12
2018-07-16T08:02:17.082Z,1788.75
2018-07-16T08:03:17.054Z,1811.25
2018-07-16T08:04:17.043Z,1873.12
2018-07-16T08:05:17.027Z,1895.62
2018-07-16T08:06:17.024Z,1912.50
2018-07-16T08:07:17.014Z,1935.00
2018-07-16T08:08:17.029Z,1940.62
2018-07-16T08:09:16.993Z,1963.12
2018-07-16T08:10:16.979Z,1980.00
2018-07-16T08:11:16.972Z,1996.88
2018-07-16T08:12:16.952Z,2019.38
2018-07-16T08:13:16.945Z,2058.75
2018-07-16T08:14:16.963Z,2098.12
2018-07-16T08:15:16.925Z,2115.00
2018-07-16T08:16:16.917Z,2137.50
2018-07-16T08:17:16.901Z,2154.38
2018-07-16T08:18:16.900Z,2188.12
2018-07-16T08:19:16.914Z,2221.88
2018-07-16T08:20:16.882Z,2266.88
2018-07-16T08:21:16.865Z,2306.25
2018-07-16T08:22:16.858Z,2340.00
2018-07-16T08:23:16.853Z,2379.38
2018-07-16T08:24:16.834Z,2418.75
2018-07-16T08:25:16.849Z,2441.25
2018-07-16T08:26:16.820Z,2458.12
2018-07-16T08:27:16.807Z,2480.62
2018-07-16T08:28:16.841Z,2497.50
2018-07-16T08:29:16.779Z,2508.75
2018-07-16T08:30:16.810Z,2525.62
2018-07-16T08:31:16.758Z,2570.62
2018-07-16T08:32:16.759Z,2598.75
2018-07-16T08:33:16.741Z,2615.62
2018-07-16T08:34:16.732Z,2638.12
2018-07-16T08:35:16.721Z,2649.38
2018-07-16T08:36:16.747Z,2677.50
2018-07-16T08:37:16.697Z,2688.75
2018-07-16T08:38:16.696Z,2694.38
2018-07-16T08:39:16.680Z,2722.50
2018-07-16T08:40:16.675Z,2745.00
2018-07-16T08:41:16.667Z,2756.25
2018-07-16T08:42:16.676Z,2773.12
2018-07-16T08:43:16.648Z,2778.75
2018-07-16T08:44:16.637Z,2790.00
2018-07-16T08:45:16.628Z,2795.62
2018-07-16T08:46:16.668Z,2795.62
2018-07-16T08:47:16.634Z,2801.25
2018-07-16T08:48:16.595Z,2818.12
2018-07-16T08:49:16.588Z,2840.62
2018-07-16T08:50:16.575Z,2835.00
2018-07-16T08:51:16.560Z,2840.62
2018-07-16T08:52:16.561Z,2851.88
2018-07-16T08:53:16.575Z,2840.62
2018-07-16T08:54:16.539Z,2835.00
2018-07-16T08:55:16.526Z,2829.38
2018-07-16T08:56:16.519Z,2840.62
2018-07-16T08:57:16.513Z,2857.50
2018-07-16T08:58:16.542Z,2863.12
2018-07-16T08:59:16.596Z,2846.25
2018-07-16T09:00:16.482Z,2840.62
2018-07-16T09:01:16.488Z,2846.25
2018-07-16T09:02:16.460Z,2851.88
2018-07-16T09:03:16.448Z,2835.00
2018-07-16T09:04:16.486Z,2846.25
2018-07-16T09:05:16.452Z,2840.62
2018-07-16T09:06:16.423Z,2835.00
2018-07-16T09:07:16.503Z,2823.75
2018-07-16T09:08:16.461Z,2823.75
2018-07-16T09:09:16.403Z,2801.25
2018-07-16T09:10:16.409Z,2801.25
2018-07-16T09:11:16.419Z,2784.38
2018-07-16T09:12:16.368Z,2773.12
2018-07-16T09:13:16.410Z,2767.50
2018-07-16T09:14:16.346Z,2739.38
2018-07-16T09:15:16.383Z,2728.12
2018-07-16T09:16:16.328Z,2705.62
2018-07-16T09:17:16.321Z,2694.38
2018-07-16T09:18:16.317Z,2700.00
2018-07-16T09:19:16.351Z,2666.25
2018-07-16T09:20:16.328Z,2643.75
2018-07-16T09:21:16.364Z,2610.00
2018-07-16T09:22:16.486Z,2587.50
2018-07-16T09:23:16.485Z,2576.25
2018-07-16T09:24:16.431Z,2576.25
2018-07-16T09:25:16.486Z,2548.12
2018-07-16T09:26:16.550Z,2514.38
2018-07-16T09:27:16.451Z,2463.75
2018-07-16T09:28:16.386Z,2407.50
2018-07-16T09:29:16.401Z,2345.62
2018-07-16T09:30:16.372Z,2289.38
2018-07-16T09:31:16.304Z,2244.38
2018-07-16T09:32:16.438Z,2210.62
2018-07-16T09:33:16.311Z,2171.25
2018-07-16T09:34:16.273Z,2154.38
2018-07-16T09:35:16.229Z,2109.38
2018-07-16T09:36:16.329Z,2053.12
2018-07-16T09:37:16.202Z,2008.12
2018-07-16T09:38:16.143Z,1968.75
2018-07-16T09:39:16.132Z,1929.38
2018-07-16T09:40:16.133Z,1884.38
2018-07-16T09:41:16.111Z,1856.25
2018-07-16T09:42:16.111Z,1839.38
2018-07-16T09:43:16.184Z,1822.50
2018-07-16T09:44:16.117Z,1811.25
2018-07-16T09:45:16.098Z,1794.38
2018-07-16T09:46:16.081Z,1760.62
2018-07-16T09:47:16.072Z,1738.12
2018-07-16T09:48:16.052Z,1721.25
2018-07-16T09:49:16.086Z,1693.12
2018-07-16T09:50:16.043Z,1665.00
2018-07-16T09:51:16.055Z,1636.88
2018-07-16T09:52:16.026Z,1608.75
2018-07-16T09:53:16.019Z,1580.62
2018-07-16T09:54:16.078Z,1569.38
2018-07-16T09:55:15.994Z,1541.25
2018-07-16T09:56:15.998Z,1530.00
2018-07-16T09:57:15.975Z,1507.50
2018-07-16T09:58:15.977Z,1507.50
2018-07-16T09:59:15.993Z,1513.12
2018-07-16T10:00:15.956Z,1513.12
2018-07-16T10:01:15.940Z,1501.88
2018-07-16T10:02:15.933Z,1490.62
2018-07-16T10:03:15.923Z,1485.00
2018-07-16T10:04:15.916Z,1468.12
2018-07-16T10:05:15.931Z,1479.38
2018-07-16T10:06:15.898Z,1479.38
2018-07-16T10:07:15.887Z,1468.12
2018-07-16T10:08:15.937Z,1473.75
2018-07-16T10:09:15.867Z,1479.38
2018-07-16T10:10:15.868Z,1479.38
2018-07-16T10:11:15.898Z,1485.00
2018-07-16T10:12:15.844Z,1485.00
2018-07-16T10:13:15.842Z,1485.00
2018-07-16T10:14:15.826Z,1501.88
2018-07-16T10:15:15.823Z,1546.88
2018-07-16T10:16:15.805Z,1631.25
2018-07-16T10:17:15.825Z,2255.62
2018-07-16T10:18:15.790Z,4353.75
2018-07-16T10:19:15.785Z,6013.12
2018-07-16T10:20:15.787Z,5636.25
2018-07-16T10:21:15.768Z,4702.50
2018-07-16T10:22:15.780Z,4500.00
2018-07-16T10:23:15.754Z,4381.88
2018-07-16T10:24:15.737Z,4218.75
2018-07-16T10:25:15.736Z,4297.50
2018-07-16T10:26:15.718Z,4342.50
2018-07-16T10:27:15.742Z,4246.88
2018-07-16T10:28:15.708Z,4477.50
2018-07-16T10:29:15.693Z,4595.62
2018-07-16T10:30:15.693Z,4230.00
2018-07-16T10:31:15.682Z,4089.38
2018-07-16T10:32:15.668Z,4123.12
2018-07-16T10:33:15.693Z,4162.50
2018-07-16T10:34:15.655Z,4291.88
2018-07-16T10:35:15.648Z,4297.50
2018-07-16T10:36:15.639Z,4275.00
2018-07-16T10:37:15.622Z,4353.75
2018-07-16T10:38:15.614Z,4578.75
2018-07-16T10:39:15.683Z,3971.25
2018-07-16T10:40:15.590Z,4381.88
2018-07-16T10:41:15.579Z,4618.12
2018-07-16T10:42:15.578Z,4696.88
2018-07-16T10:43:15.564Z,4050.00
2018-07-16T10:44:15.585Z,4438.12
2018-07-16T10:45:15.550Z,4719.38
2018-07-16T10:46:15.530Z,4567.50
2018-07-16T10:47:15.531Z,4410.00
2018-07-16T10:48:15.510Z,4528.12
2018-07-16T10:49:15.509Z,4556.25
2018-07-16T10:50:15.516Z,4601.25
2018-07-16T10:51:15.487Z,4725.00
2018-07-16T10:52:15.472Z,4871.25
2018-07-16T10:53:15.465Z,4950.00
2018-07-16T10:54:15.451Z,4933.12
2018-07-16T10:55:15.525Z,4815.00
2018-07-16T10:56:15.431Z,4719.38
2018-07-16T10:57:15.427Z,4786.88
2018-07-16T10:58:15.408Z,4837.50
2018-07-16T10:59:15.403Z,5090.62
2018-07-16T11:00:15.387Z,5349.38
2018-07-16T11:01:15.400Z,5518.12
2018-07-16T11:02:15.375Z,5574.38
2018-07-16T11:03:15.355Z,5388.75
2018-07-16T11:04:15.356Z,5326.88
2018-07-16T11:05:15.394Z,5506.88
2018-07-16T11:06:15.368Z,5461.88
2018-07-16T11:07:15.321Z,5191.88
2018-07-16T11:08:15.315Z,4983.75
2018-07-16T11:09:15.309Z,4961.25
2018-07-16T11:10:15.292Z,4961.25
2018-07-16T11:11:15.285Z,4916.25
2018-07-16T11:12:15.299Z,5056.88
2018-07-16T11:13:15.272Z,5400.00
2018-07-16T11:14:15.252Z,5664.38
2018-07-16T11:15:15.239Z,5878.12
2018-07-16T11:16:15.237Z,6125.62
2018-07-16T11:17:15.226Z,5934.38
2018-07-16T11:18:15.231Z,5253.75
2018-07-16T11:19:15.206Z,4899.38
2018-07-16T11:20:15.186Z,5051.25
2018-07-16T11:21:15.185Z,5214.38
2018-07-16T11:22:15.170Z,5287.50
2018-07-16T11:23:15.163Z,5253.75
2018-07-16T11:24:15.185Z,5141.25
2018-07-16T11:25:15.138Z,5208.75
2018-07-16T11:26:15.140Z,5304.38
2018-07-16T11:27:15.125Z,5304.38
2018-07-16T11:28:15.113Z,5152.50
2018-07-16T11:29:15.102Z,4916.25
2018-07-16T11:30:15.123Z,4612.50
2018-07-16T11:31:15.083Z,4466.25
2018-07-16T11:32:15.078Z,4443.75
2018-07-16T11:33:15.060Z,4381.88
2018-07-16T11:34:15.062Z,4303.12
2018-07-16T11:35:15.053Z,4455.00
2018-07-16T11:36:15.061Z,4539.38
2018-07-16T11:37:15.029Z,4556.25
2018-07-16T11:38:15.025Z,4573.12
2018-07-16T11:39:15.019Z,4494.38
2018-07-16T11:40:14.997Z,4393.12
2018-07-16T11:41:15.029Z,4376.25
2018-07-16T11:42:14.979Z,4455.00
2018-07-16T11:43:14.973Z,4426.88
2018-07-16T11:44:14.966Z,4314.38
2018-07-16T11:45:14.959Z,4196.25
2018-07-16T11:46:14.997Z,4151.25
2018-07-16T11:47:14.965Z,4162.50
2018-07-16T11:48:14.932Z,4224.38
2018-07-16T11:49:14.925Z,4207.50
2018-07-16T11:50:14.908Z,4145.62
2018-07-16T11:51:14.907Z,4055.62
2018-07-16T11:52:14.914Z,4033.12
2018-07-16T11:53:14.908Z,4016.25
2018-07-16T11:54:14.874Z,3993.75
2018-07-16T11:55:14.868Z,3926.25
2018-07-16T11:56:14.856Z,3858.75
2018-07-16T11:57:14.852Z,3858.75
2018-07-16T11:58:14.868Z,4010.62
2018-07-16T11:59:14.903Z,4016.25
2018-07-16T12:00:14.820Z,3825.00
2018-07-16T12:01:14.817Z,3785.62
2018-07-16T12:02:14.800Z,3909.38
2018-07-16T12:03:14.800Z,3926.25
2018-07-16T12:04:14.814Z,3903.75
2018-07-16T12:05:14.826Z,3870.00
2018-07-16T12:06:14.774Z,3825.00
2018-07-16T12:07:14.755Z,3965.62
2018-07-16T12:08:14.756Z,3937.50
2018-07-16T12:09:14.748Z,3577.50
2018-07-16T12:10:14.773Z,3178.12
2018-07-16T12:11:14.728Z,3206.25
2018-07-16T12:12:14.733Z,3622.50
2018-07-16T12:13:14.711Z,3937.50
2018-07-16T12:14:14.703Z,3864.38
2018-07-16T12:15:14.696Z,3718.12
2018-07-16T12:16:14.715Z,3768.75
2018-07-16T12:17:14.678Z,3796.88
2018-07-16T12:18:14.679Z,3616.88
2018-07-16T12:19:14.662Z,3555.00
2018-07-16T12:20:14.658Z,3616.88
2018-07-16T12:21:14.677Z,3673.12
2018-07-16T12:22:14.698Z,3678.75
2018-07-16T12:23:14.630Z,3735.00
2018-07-16T12:24:14.623Z,3729.38
2018-07-16T12:25:14.615Z,3583.12
2018-07-16T12:26:14.641Z,3436.88
2018-07-16T12:27:14.592Z,3555.00
2018-07-16T12:28:14.591Z,3735.00
2018-07-16T12:29:14.580Z,3729.38
2018-07-16T12:30:14.572Z,3712.50
2018-07-16T12:31:14.557Z,3785.62
2018-07-16T12:32:14.590Z,3785.62